Munising, Michigan
Current Conditions -  °F | °C
As of 11:45 AM on Saturday 25 Oct 2014 (Local Time) from KSAW Reporting Station
Clear Clear  
Wind Chill: 54°   Ceiling: Unl
Heat Index: 54°   Visibility: 10mi
Dew Point: 34°   Wind: 22mph
Humidity: 47%   Direction: 300°WNW
Pressure: 29.71"   Gusts: 32mph
Location:  46.41°N, 86.65°W
Report Text: KSAW 251545Z 30019G28KT 10SM SKC 12/01 A2971
Loading
Personal Weather Stations






























Interactive Weather Map
Tropical Storm Tracking
New forecast layout! Learn more

10-Day Weather Forecast

Advertisements
Track Severe Weather on mobile